sensor_id;sensor_type;location;lat;lon;timestamp;P1;durP1;ratioP1;P2;durP2;ratioP2
15356;SDS011;7778;48.792;9.260;2022-09-13T00:02:02;2.80;;;1.80;;
15356;SDS011;7778;48.792;9.260;2022-09-13T00:04:48;1.77;;;1.50;;
15356;SDS011;7778;48.792;9.260;2022-09-13T00:07:33;2.85;;;1.48;;
15356;SDS011;7778;48.792;9.260;2022-09-13T00:10:25;3.60;;;2.05;;
15356;SDS011;7778;48.792;9.260;2022-09-13T00:13:24;1.52;;;1.42;;
15356;SDS011;7778;48.792;9.260;2022-09-13T00:16:11;2.13;;;1.58;;
15356;SDS011;7778;48.792;9.260;2022-09-13T00:19:00;2.63;;;1.77;;
15356;SDS011;7778;48.792;9.260;2022-09-13T00:21:45;1.80;;;1.58;;
15356;SDS011;7778;48.792;9.260;2022-09-13T00:24:31;2.40;;;1.88;;
15356;SDS011;7778;48.792;9.260;2022-09-13T00:27:28;4.22;;;2.17;;
15356;SDS011;7778;48.792;9.260;2022-09-13T00:30:14;3.25;;;1.98;;
15356;SDS011;7778;48.792;9.260;2022-09-13T00:33:02;2.30;;;1.80;;
15356;SDS011;7778;48.792;9.260;2022-09-13T00:35:49;2.60;;;1.80;;
15356;SDS011;7778;48.792;9.260;2022-09-13T00:38:35;2.90;;;2.15;;
15356;SDS011;7778;48.792;9.260;2022-09-13T00:41:21;3.55;;;2.00;;
15356;SDS011;7778;48.792;9.260;2022-09-13T00:47:33;3.53;;;1.88;;
15356;SDS011;7778;48.792;9.260;2022-09-13T00:50:27;4.90;;;2.17;;
15356;SDS011;7778;48.792;9.260;2022-09-13T00:53:20;3.30;;;2.25;;
15356;SDS011;7778;48.792;9.260;2022-09-13T00:56:14;3.03;;;2.35;;
15356;SDS011;7778;48.792;9.260;2022-09-13T00:59:05;2.03;;;1.83;;
15356;SDS011;7778;48.792;9.260;2022-09-13T01:01:57;4.43;;;2.05;;
15356;SDS011;7778;48.792;9.260;2022-09-13T01:04:46;2.60;;;2.00;;
15356;SDS011;7778;48.792;9.260;2022-09-13T01:07:32;2.65;;;2.00;;
15356;SDS011;7778;48.792;9.260;2022-09-13T01:10:26;4.50;;;1.98;;
15356;SDS011;7778;48.792;9.260;2022-09-13T01:13:15;3.28;;;2.08;;
15356;SDS011;7778;48.792;9.260;2022-09-13T01:16:06;2.50;;;1.98;;
15356;SDS011;7778;48.792;9.260;2022-09-13T01:18:52;2.83;;;1.63;;
15356;SDS011;7778;48.792;9.260;2022-09-13T01:25:29;3.28;;;1.58;;
15356;SDS011;7778;48.792;9.260;2022-09-13T01:29:14;1.65;;;1.50;;
15356;SDS011;7778;48.792;9.260;2022-09-13T01:32:34;2.70;;;1.75;;
15356;SDS011;7778;48.792;9.260;2022-09-13T01:36:13;1.67;;;1.40;;
15356;SDS011;7778;48.792;9.260;2022-09-13T01:39:28;2.65;;;1.42;;
15356;SDS011;7778;48.792;9.260;2022-09-13T01:42:31;1.33;;;1.20;;
15356;SDS011;7778;48.792;9.260;2022-09-13T01:45:34;1.67;;;1.30;;
15356;SDS011;7778;48.792;9.260;2022-09-13T01:48:33;2.78;;;1.48;;
15356;SDS011;7778;48.792;9.260;2022-09-13T01:51:36;2.70;;;1.23;;
15356;SDS011;7778;48.792;9.260;2022-09-13T01:54:31;4.07;;;1.45;;
15356;SDS011;7778;48.792;9.260;2022-09-13T01:57:30;1.85;;;1.60;;
15356;SDS011;7778;48.792;9.260;2022-09-13T02:00:19;2.45;;;1.45;;
15356;SDS011;7778;48.792;9.260;2022-09-13T02:03:06;2.35;;;1.00;;
15356;SDS011;7778;48.792;9.260;2022-09-13T02:05:59;4.43;;;2.08;;
15356;SDS011;7778;48.792;9.260;2022-09-13T02:08:51;1.85;;;1.67;;
15356;SDS011;7778;48.792;9.260;2022-09-13T02:11:41;1.83;;;1.63;;
15356;SDS011;7778;48.792;9.260;2022-09-13T02:14:32;2.60;;;1.80;;
15356;SDS011;7778;48.792;9.260;2022-09-13T02:17:21;3.72;;;2.08;;
15356;SDS011;7778;48.792;9.260;2022-09-13T02:20:11;2.85;;;2.03;;
15356;SDS011;7778;48.792;9.260;2022-09-13T02:23:06;1.75;;;1.50;;
15356;SDS011;7778;48.792;9.260;2022-09-13T02:25:57;2.92;;;1.48;;
15356;SDS011;7778;48.792;9.260;2022-09-13T02:28:47;2.08;;;1.70;;
15356;SDS011;7778;48.792;9.260;2022-09-13T02:31:38;1.45;;;1.25;;
15356;SDS011;7778;48.792;9.260;2022-09-13T02:34:33;3.83;;;1.45;;
15356;SDS011;7778;48.792;9.260;2022-09-13T02:37:33;1.92;;;1.55;;
15356;SDS011;7778;48.792;9.260;2022-09-13T02:40:34;2.95;;;1.60;;
15356;SDS011;7778;48.792;9.260;2022-09-13T02:43:32;3.15;;;1.23;;
15356;SDS011;7778;48.792;9.260;2022-09-13T02:46:38;1.90;;;1.35;;
15356;SDS011;7778;48.792;9.260;2022-09-13T02:49:46;2.10;;;1.70;;
15356;SDS011;7778;48.792;9.260;2022-09-13T02:52:41;1.40;;;1.30;;
15356;SDS011;7778;48.792;9.260;2022-09-13T02:55:38;1.98;;;1.60;;
15356;SDS011;7778;48.792;9.260;2022-09-13T02:58:31;1.50;;;1.40;;
15356;SDS011;7778;48.792;9.260;2022-09-13T03:01:23;2.15;;;1.58;;
15356;SDS011;7778;48.792;9.260;2022-09-13T03:04:09;1.40;;;1.30;;
15356;SDS011;7778;48.792;9.260;2022-09-13T03:06:55;2.10;;;1.35;;
15356;SDS011;7778;48.792;9.260;2022-09-13T03:09:41;3.17;;;1.25;;
15356;SDS011;7778;48.792;9.260;2022-09-13T03:12:40;3.33;;;1.50;;
15356;SDS011;7778;48.792;9.260;2022-09-13T03:15:56;2.17;;;1.40;;
15356;SDS011;7778;48.792;9.260;2022-09-13T03:18:55;4.07;;;1.73;;
15356;SDS011;7778;48.792;9.260;2022-09-13T03:22:05;1.15;;;1.05;;
15356;SDS011;7778;48.792;9.260;2022-09-13T03:25:11;1.50;;;1.23;;
15356;SDS011;7778;48.792;9.260;2022-09-13T03:28:13;1.52;;;1.27;;
15356;SDS011;7778;48.792;9.260;2022-09-13T03:31:09;2.97;;;1.60;;
15356;SDS011;7778;48.792;9.260;2022-09-13T03:34:02;3.78;;;1.45;;
15356;SDS011;7778;48.792;9.260;2022-09-13T03:36:54;2.17;;;1.65;;
15356;SDS011;7778;48.792;9.260;2022-09-13T03:39:47;3.25;;;1.60;;
15356;SDS011;7778;48.792;9.260;2022-09-13T03:42:40;2.72;;;1.50;;
15356;SDS011;7778;48.792;9.260;2022-09-13T03:45:34;1.73;;;1.30;;
15356;SDS011;7778;48.792;9.260;2022-09-13T03:48:30;4.07;;;1.63;;
15356;SDS011;7778;48.792;9.260;2022-09-13T03:51:29;1.50;;;1.40;;
15356;SDS011;7778;48.792;9.260;2022-09-13T03:54:29;1.88;;;1.60;;
15356;SDS011;7778;48.792;9.260;2022-09-13T03:57:28;3.22;;;1.67;;
15356;SDS011;7778;48.792;9.260;2022-09-13T04:00:14;1.88;;;1.25;;
15356;SDS011;7778;48.792;9.260;2022-09-13T04:03:03;2.00;;;1.75;;
15356;SDS011;7778;48.792;9.260;2022-09-13T04:05:49;2.28;;;1.80;;
15356;SDS011;7778;48.792;9.260;2022-09-13T04:08:34;2.58;;;1.70;;
15356;SDS011;7778;48.792;9.260;2022-09-13T04:11:29;1.55;;;1.45;;
15356;SDS011;7778;48.792;9.260;2022-09-13T04:14:31;1.90;;;1.75;;
15356;SDS011;7778;48.792;9.260;2022-09-13T04:17:29;2.33;;;1.40;;
15356;SDS011;7778;48.792;9.260;2022-09-13T04:20:16;1.92;;;1.60;;
15356;SDS011;7778;48.792;9.260;2022-09-13T04:23:01;1.73;;;1.63;;
15356;SDS011;7778;48.792;9.260;2022-09-13T04:25:47;2.33;;;1.83;;
15356;SDS011;7778;48.792;9.260;2022-09-13T04:28:34;2.42;;;1.77;;
15356;SDS011;7778;48.792;9.260;2022-09-13T04:31:29;2.03;;;1.70;;
15356;SDS011;7778;48.792;9.260;2022-09-13T04:34:14;2.15;;;1.85;;
15356;SDS011;7778;48.792;9.260;2022-09-13T04:37:02;3.63;;;1.83;;
15356;SDS011;7778;48.792;9.260;2022-09-13T04:39:48;4.30;;;2.40;;
15356;SDS011;7778;48.792;9.260;2022-09-13T04:42:34;4.47;;;2.30;;
15356;SDS011;7778;48.792;9.260;2022-09-13T04:45:19;4.30;;;2.58;;
15356;SDS011;7778;48.792;9.260;2022-09-13T04:48:05;5.30;;;2.72;;
15356;SDS011;7778;48.792;9.260;2022-09-13T04:50:50;3.13;;;2.25;;
15356;SDS011;7778;48.792;9.260;2022-09-13T04:53:37;6.90;;;2.88;;
15356;SDS011;7778;48.792;9.260;2022-09-13T04:56:23;5.53;;;2.28;;
15356;SDS011;7778;48.792;9.260;2022-09-13T04:59:09;5.47;;;2.08;;
15356;SDS011;7778;48.792;9.260;2022-09-13T05:01:56;4.43;;;2.30;;
15356;SDS011;7778;48.792;9.260;2022-09-13T05:04:41;5.03;;;2.00;;
15356;SDS011;7778;48.792;9.260;2022-09-13T05:07:30;1.83;;;1.60;;
15356;SDS011;7778;48.792;9.260;2022-09-13T05:10:32;2.13;;;1.60;;
15356;SDS011;7778;48.792;9.260;2022-09-13T05:13:30;3.10;;;1.90;;
15356;SDS011;7778;48.792;9.260;2022-09-13T05:16:29;1.50;;;1.40;;
15356;SDS011;7778;48.792;9.260;2022-09-13T05:19:23;2.05;;;1.60;;
15356;SDS011;7778;48.792;9.260;2022-09-13T05:22:08;1.70;;;1.45;;
15356;SDS011;7778;48.792;9.260;2022-09-13T05:24:54;1.55;;;1.38;;
15356;SDS011;7778;48.792;9.260;2022-09-13T05:27:41;4.15;;;1.60;;
15356;SDS011;7778;48.792;9.260;2022-09-13T05:30:29;2.20;;;2.00;;
15356;SDS011;7778;48.792;9.260;2022-09-13T05:33:31;4.40;;;1.60;;
15356;SDS011;7778;48.792;9.260;2022-09-13T05:36:25;2.33;;;1.75;;
15356;SDS011;7778;48.792;9.260;2022-09-13T05:39:15;4.80;;;1.80;;
15356;SDS011;7778;48.792;9.260;2022-09-13T05:42:04;2.95;;;2.42;;
15356;SDS011;7778;48.792;9.260;2022-09-13T05:44:51;2.13;;;1.93;;
15356;SDS011;7778;48.792;9.260;2022-09-13T05:47:37;3.78;;;2.45;;
15356;SDS011;7778;48.792;9.260;2022-09-13T05:50:29;3.80;;;2.17;;
15356;SDS011;7778;48.792;9.260;2022-09-13T05:53:14;2.00;;;1.85;;
15356;SDS011;7778;48.792;9.260;2022-09-13T05:56:00;2.53;;;1.83;;
15356;SDS011;7778;48.792;9.260;2022-09-13T05:58:47;6.95;;;2.22;;
15356;SDS011;7778;48.792;9.260;2022-09-13T06:01:36;2.40;;;2.17;;
15356;SDS011;7778;48.792;9.260;2022-09-13T06:04:30;2.63;;;1.90;;
15356;SDS011;7778;48.792;9.260;2022-09-13T06:07:31;3.22;;;2.00;;
15356;SDS011;7778;48.792;9.260;2022-09-13T06:10:30;2.70;;;2.25;;
15356;SDS011;7778;48.792;9.260;2022-09-13T06:13:25;1.90;;;1.70;;
15356;SDS011;7778;48.792;9.260;2022-09-13T06:16:15;2.70;;;1.90;;
15356;SDS011;7778;48.792;9.260;2022-09-13T06:19:02;4.20;;;2.35;;
15356;SDS011;7778;48.792;9.260;2022-09-13T06:21:48;2.67;;;1.75;;
15356;SDS011;7778;48.792;9.260;2022-09-13T06:24:34;4.65;;;2.20;;
15356;SDS011;7778;48.792;9.260;2022-09-13T06:27:30;4.53;;;2.58;;
15356;SDS011;7778;48.792;9.260;2022-09-13T06:30:31;5.20;;;2.65;;
15356;SDS011;7778;48.792;9.260;2022-09-13T06:33:32;6.57;;;3.35;;
15356;SDS011;7778;48.792;9.260;2022-09-13T06:36:27;9.15;;;3.50;;
15356;SDS011;7778;48.792;9.260;2022-09-13T06:39:12;6.80;;;2.35;;
15356;SDS011;7778;48.792;9.260;2022-09-13T06:41:58;2.30;;;1.83;;
15356;SDS011;7778;48.792;9.260;2022-09-13T06:44:44;3.65;;;1.98;;
15356;SDS011;7778;48.792;9.260;2022-09-13T06:47:31;5.65;;;2.10;;
15356;SDS011;7778;48.792;9.260;2022-09-13T06:50:32;4.20;;;2.05;;
15356;SDS011;7778;48.792;9.260;2022-09-13T06:53:19;2.97;;;2.00;;
15356;SDS011;7778;48.792;9.260;2022-09-13T06:56:05;2.15;;;1.85;;
15356;SDS011;7778;48.792;9.260;2022-09-13T06:58:54;2.92;;;1.83;;
15356;SDS011;7778;48.792;9.260;2022-09-13T07:01:42;1.80;;;1.70;;
15356;SDS011;7778;48.792;9.260;2022-09-13T07:04:31;2.45;;;1.83;;
15356;SDS011;7778;48.792;9.260;2022-09-13T07:07:29;2.10;;;1.90;;
15356;SDS011;7778;48.792;9.260;2022-09-13T07:10:19;3.38;;;1.77;;
15356;SDS011;7778;48.792;9.260;2022-09-13T07:13:08;1.52;;;1.42;;
15356;SDS011;7778;48.792;9.260;2022-09-13T07:15:53;5.32;;;1.83;;
15356;SDS011;7778;48.792;9.260;2022-09-13T07:18:39;2.85;;;1.80;;
15356;SDS011;7778;48.792;9.260;2022-09-13T07:21:25;2.60;;;1.88;;
15356;SDS011;7778;48.792;9.260;2022-09-13T07:24:12;3.13;;;1.95;;
15356;SDS011;7778;48.792;9.260;2022-09-13T07:26:59;1.92;;;1.48;;
15356;SDS011;7778;48.792;9.260;2022-09-13T07:29:44;3.25;;;2.03;;
15356;SDS011;7778;48.792;9.260;2022-09-13T07:32:30;3.03;;;1.45;;
15356;SDS011;7778;48.792;9.260;2022-09-13T07:35:22;3.75;;;1.80;;
15356;SDS011;7778;48.792;9.260;2022-09-13T07:38:14;1.88;;;1.63;;
15356;SDS011;7778;48.792;9.260;2022-09-13T07:40:59;2.22;;;1.63;;
15356;SDS011;7778;48.792;9.260;2022-09-13T07:43:49;4.32;;;1.92;;
15356;SDS011;7778;48.792;9.260;2022-09-13T07:46:35;2.95;;;1.60;;
15356;SDS011;7778;48.792;9.260;2022-09-13T07:49:30;3.53;;;2.08;;
15356;SDS011;7778;48.792;9.260;2022-09-13T07:52:16;3.28;;;1.92;;
15356;SDS011;7778;48.792;9.260;2022-09-13T07:55:10;3.90;;;2.00;;
15356;SDS011;7778;48.792;9.260;2022-09-13T07:57:55;3.33;;;1.80;;
15356;SDS011;7778;48.792;9.260;2022-09-13T08:00:43;3.47;;;1.80;;
15356;SDS011;7778;48.792;9.260;2022-09-13T08:03:33;3.85;;;2.05;;
15356;SDS011;7778;48.792;9.260;2022-09-13T08:06:32;2.85;;;1.70;;
15356;SDS011;7778;48.792;9.260;2022-09-13T08:09:19;2.03;;;1.45;;
15356;SDS011;7778;48.792;9.260;2022-09-13T08:12:05;2.13;;;1.67;;
15356;SDS011;7778;48.792;9.260;2022-09-13T08:14:50;2.65;;;1.73;;
15356;SDS011;7778;48.792;9.260;2022-09-13T08:17:37;1.70;;;1.48;;
15356;SDS011;7778;48.792;9.260;2022-09-13T08:20:34;3.13;;;1.75;;
15356;SDS011;7778;48.792;9.260;2022-09-13T08:23:27;7.68;;;2.08;;
15356;SDS011;7778;48.792;9.260;2022-09-13T08:26:13;1.70;;;1.40;;
15356;SDS011;7778;48.792;9.260;2022-09-13T08:29:00;2.53;;;1.77;;
15356;SDS011;7778;48.792;9.260;2022-09-13T08:31:48;2.03;;;1.58;;
15356;SDS011;7778;48.792;9.260;2022-09-13T08:34:35;2.25;;;1.90;;
15356;SDS011;7778;48.792;9.260;2022-09-13T08:37:30;3.53;;;1.63;;
15356;SDS011;7778;48.792;9.260;2022-09-13T08:40:17;1.42;;;1.33;;
15356;SDS011;7778;48.792;9.260;2022-09-13T08:43:04;1.52;;;1.42;;
15356;SDS011;7778;48.792;9.260;2022-09-13T08:45:57;1.63;;;1.50;;
15356;SDS011;7778;48.792;9.260;2022-09-13T08:58:32;4.38;;;1.50;;
15356;SDS011;7778;48.792;9.260;2022-09-13T09:01:33;2.28;;;1.52;;
15356;SDS011;7778;48.792;9.260;2022-09-13T09:04:35;2.20;;;1.73;;
15356;SDS011;7778;48.792;9.260;2022-09-13T09:07:27;2.83;;;1.95;;
15356;SDS011;7778;48.792;9.260;2022-09-13T09:10:26;2.88;;;1.70;;
15356;SDS011;7778;48.792;9.260;2022-09-13T09:13:16;2.20;;;1.80;;
15356;SDS011;7778;48.792;9.260;2022-09-13T09:16:15;2.45;;;1.75;;
15356;SDS011;7778;48.792;9.260;2022-09-13T09:19:15;2.55;;;1.80;;
15356;SDS011;7778;48.792;9.260;2022-09-13T09:22:12;1.75;;;1.65;;
15356;SDS011;7778;48.792;9.260;2022-09-13T09:25:12;2.53;;;1.65;;
15356;SDS011;7778;48.792;9.260;2022-09-13T09:27:58;2.53;;;1.48;;
15356;SDS011;7778;48.792;9.260;2022-09-13T09:30:45;2.00;;;1.77;;
15356;SDS011;7778;48.792;9.260;2022-09-13T09:33:49;2.70;;;1.60;;
15356;SDS011;7778;48.792;9.260;2022-09-13T09:36:48;1.48;;;1.38;;
15356;SDS011;7778;48.792;9.260;2022-09-13T09:39:43;1.45;;;1.35;;
15356;SDS011;7778;48.792;9.260;2022-09-13T09:42:33;2.05;;;1.23;;
15356;SDS011;7778;48.792;9.260;2022-09-13T09:45:32;2.17;;;1.65;;
15356;SDS011;7778;48.792;9.260;2022-09-13T09:48:26;1.92;;;1.27;;
15356;SDS011;7778;48.792;9.260;2022-09-13T09:51:31;1.40;;;1.30;;
15356;SDS011;7778;48.792;9.260;2022-09-13T09:54:29;2.30;;;1.45;;
15356;SDS011;7778;48.792;9.260;2022-09-13T09:57:17;1.80;;;1.38;;
15356;SDS011;7778;48.792;9.260;2022-09-13T10:00:09;3.03;;;1.90;;
15356;SDS011;7778;48.792;9.260;2022-09-13T10:02:58;2.97;;;1.50;;
15356;SDS011;7778;48.792;9.260;2022-09-13T10:05:47;2.78;;;1.90;;
15356;SDS011;7778;48.792;9.260;2022-09-13T10:08:35;1.40;;;1.30;;
15356;SDS011;7778;48.792;9.260;2022-09-13T10:11:36;1.40;;;1.30;;
15356;SDS011;7778;48.792;9.260;2022-09-13T10:14:37;1.58;;;1.30;;
15356;SDS011;7778;48.792;9.260;2022-09-13T10:17:25;2.33;;;1.35;;
15356;SDS011;7778;48.792;9.260;2022-09-13T10:20:19;1.25;;;1.17;;
15356;SDS011;7778;48.792;9.260;2022-09-13T10:23:18;1.38;;;1.20;;
15356;SDS011;7778;48.792;9.260;2022-09-13T10:26:13;1.38;;;1.27;;
15356;SDS011;7778;48.792;9.260;2022-09-13T10:29:04;3.22;;;1.20;;
15356;SDS011;7778;48.792;9.260;2022-09-13T10:31:53;1.67;;;1.52;;
15356;SDS011;7778;48.792;9.260;2022-09-13T10:34:41;1.85;;;1.27;;
15356;SDS011;7778;48.792;9.260;2022-09-13T10:37:29;2.00;;;1.13;;
15356;SDS011;7778;48.792;9.260;2022-09-13T10:40:31;2.60;;;1.20;;
15356;SDS011;7778;48.792;9.260;2022-09-13T10:43:26;1.95;;;1.17;;
15356;SDS011;7778;48.792;9.260;2022-09-13T10:46:14;1.33;;;1.20;;
15356;SDS011;7778;48.792;9.260;2022-09-13T10:49:08;6.97;;;2.20;;
15356;SDS011;7778;48.792;9.260;2022-09-13T10:52:29;2.53;;;1.15;;
15356;SDS011;7778;48.792;9.260;2022-09-13T10:55:31;1.25;;;1.15;;
15356;SDS011;7778;48.792;9.260;2022-09-13T10:58:30;0.80;;;0.80;;
15356;SDS011;7778;48.792;9.260;2022-09-13T11:01:35;2.33;;;0.75;;
15356;SDS011;7778;48.792;9.260;2022-09-13T11:04:42;1.42;;;1.30;;
15356;SDS011;7778;48.792;9.260;2022-09-13T11:08:13;1.50;;;1.13;;
15356;SDS011;7778;48.792;9.260;2022-09-13T11:11:26;1.58;;;1.23;;
15356;SDS011;7778;48.792;9.260;2022-09-13T11:14:30;1.83;;;1.33;;
15356;SDS011;7778;48.792;9.260;2022-09-13T11:17:39;2.42;;;1.80;;
15356;SDS011;7778;48.792;9.260;2022-09-13T11:21:06;1.17;;;1.05;;
15356;SDS011;7778;48.792;9.260;2022-09-13T11:24:10;1.02;;;0.90;;
15356;SDS011;7778;48.792;9.260;2022-09-13T11:27:13;1.73;;;1.00;;
15356;SDS011;7778;48.792;9.260;2022-09-13T11:30:11;1.13;;;1.08;;
15356;SDS011;7778;48.792;9.260;2022-09-13T11:33:17;1.50;;;1.10;;
15356;SDS011;7778;48.792;9.260;2022-09-13T11:36:31;0.60;;;0.60;;
15356;SDS011;7778;48.792;9.260;2022-09-13T11:39:36;2.10;;;1.02;;
15356;SDS011;7778;48.792;9.260;2022-09-13T11:42:34;2.45;;;0.73;;
15356;SDS011;7778;48.792;9.260;2022-09-13T11:45:34;1.83;;;0.80;;
15356;SDS011;7778;48.792;9.260;2022-09-13T11:51:56;1.05;;;1.00;;
15356;SDS011;7778;48.792;9.260;2022-09-13T11:54:58;1.20;;;0.98;;
15356;SDS011;7778;48.792;9.260;2022-09-13T11:58:00;1.02;;;0.95;;
15356;SDS011;7778;48.792;9.260;2022-09-13T12:00:51;0.77;;;0.70;;
15356;SDS011;7778;48.792;9.260;2022-09-13T12:03:42;0.65;;;0.65;;
15356;SDS011;7778;48.792;9.260;2022-09-13T12:06:37;0.70;;;0.70;;
15356;SDS011;7778;48.792;9.260;2022-09-13T12:09:30;1.75;;;0.60;;
15356;SDS011;7778;48.792;9.260;2022-09-13T12:12:31;1.88;;;0.68;;
15356;SDS011;7778;48.792;9.260;2022-09-13T12:15:31;1.15;;;0.98;;
15356;SDS011;7778;48.792;9.260;2022-09-13T12:18:29;0.82;;;0.82;;
15356;SDS011;7778;48.792;9.260;2022-09-13T12:21:27;1.67;;;0.80;;
15356;SDS011;7778;48.792;9.260;2022-09-13T12:24:31;0.85;;;0.82;;
15356;SDS011;7778;48.792;9.260;2022-09-13T12:27:30;0.50;;;0.50;;
15356;SDS011;7778;48.792;9.260;2022-09-13T12:30:26;0.60;;;0.52;;
15356;SDS011;7778;48.792;9.260;2022-09-13T12:33:24;0.60;;;0.60;;
15356;SDS011;7778;48.792;9.260;2022-09-13T12:36:39;1.75;;;0.60;;
15356;SDS011;7778;48.792;9.260;2022-09-13T12:39:52;0.45;;;0.40;;
15356;SDS011;7778;48.792;9.260;2022-09-13T12:42:57;0.80;;;0.80;;
15356;SDS011;7778;48.792;9.260;2022-09-13T12:46:11;0.55;;;0.50;;
15356;SDS011;7778;48.792;9.260;2022-09-13T12:49:25;0.57;;;0.57;;
15356;SDS011;7778;48.792;9.260;2022-09-13T12:52:33;1.42;;;0.82;;
15356;SDS011;7778;48.792;9.260;2022-09-13T12:55:29;0.60;;;0.60;;
15356;SDS011;7778;48.792;9.260;2022-09-13T12:58:46;0.57;;;0.30;;
15356;SDS011;7778;48.792;9.260;2022-09-13T13:02:20;0.50;;;0.50;;
15356;SDS011;7778;48.792;9.260;2022-09-13T13:05:33;0.50;;;0.50;;
15356;SDS011;7778;48.792;9.260;2022-09-13T13:08:26;1.95;;;0.75;;
15356;SDS011;7778;48.792;9.260;2022-09-13T13:11:13;12.10;;;1.45;;
15356;SDS011;7778;48.792;9.260;2022-09-13T13:14:00;2.28;;;0.80;;
15356;SDS011;7778;48.792;9.260;2022-09-13T13:16:52;0.88;;;0.70;;
15356;SDS011;7778;48.792;9.260;2022-09-13T13:19:38;0.70;;;0.70;;
15356;SDS011;7778;48.792;9.260;2022-09-13T13:25:37;0.55;;;0.55;;
15356;SDS011;7778;48.792;9.260;2022-09-13T13:28:50;0.77;;;0.77;;
15356;SDS011;7778;48.792;9.260;2022-09-13T13:32:11;0.98;;;0.80;;
15356;SDS011;7778;48.792;9.260;2022-09-13T13:34:57;3.85;;;0.88;;
15356;SDS011;7778;48.792;9.260;2022-09-13T13:41:42;1.38;;;0.88;;
15356;SDS011;7778;48.792;9.260;2022-09-13T13:48:09;7.60;;;3.92;;
15356;SDS011;7778;48.792;9.260;2022-09-13T13:51:16;1.45;;;0.63;;
15356;SDS011;7778;48.792;9.260;2022-09-13T13:57:39;0.57;;;0.50;;
15356;SDS011;7778;48.792;9.260;2022-09-13T14:00:34;0.52;;;0.52;;
15356;SDS011;7778;48.792;9.260;2022-09-13T14:03:38;2.85;;;0.70;;
15356;SDS011;7778;48.792;9.260;2022-09-13T14:06:42;0.60;;;0.60;;
15356;SDS011;7778;48.792;9.260;2022-09-13T14:09:38;1.60;;;0.80;;
15356;SDS011;7778;48.792;9.260;2022-09-13T14:12:40;2.92;;;1.05;;
15356;SDS011;7778;48.792;9.260;2022-09-13T14:15:42;1.98;;;0.70;;
15356;SDS011;7778;48.792;9.260;2022-09-13T14:18:43;1.85;;;0.50;;
15356;SDS011;7778;48.792;9.260;2022-09-13T14:21:39;0.57;;;0.52;;
15356;SDS011;7778;48.792;9.260;2022-09-13T14:24:33;0.82;;;0.82;;
15356;SDS011;7778;48.792;9.260;2022-09-13T14:27:32;0.65;;;0.65;;
15356;SDS011;7778;48.792;9.260;2022-09-13T14:30:31;0.70;;;0.70;;
15356;SDS011;7778;48.792;9.260;2022-09-13T14:33:27;0.68;;;0.68;;
15356;SDS011;7778;48.792;9.260;2022-09-13T14:36:18;1.40;;;0.90;;
15356;SDS011;7778;48.792;9.260;2022-09-13T14:39:09;0.50;;;0.50;;
15356;SDS011;7778;48.792;9.260;2022-09-13T14:41:59;0.75;;;0.75;;
15356;SDS011;7778;48.792;9.260;2022-09-13T14:44:47;2.13;;;1.45;;
15356;SDS011;7778;48.792;9.260;2022-09-13T14:47:34;0.82;;;0.75;;
15356;SDS011;7778;48.792;9.260;2022-09-13T14:50:32;0.90;;;0.63;;
15356;SDS011;7778;48.792;9.260;2022-09-13T14:53:24;1.85;;;1.10;;
15356;SDS011;7778;48.792;9.260;2022-09-13T14:56:14;0.60;;;0.60;;
15356;SDS011;7778;48.792;9.260;2022-09-13T14:59:03;1.48;;;1.35;;
15356;SDS011;7778;48.792;9.260;2022-09-13T15:01:57;0.80;;;0.65;;
15356;SDS011;7778;48.792;9.260;2022-09-13T15:04:52;0.77;;;0.77;;
15356;SDS011;7778;48.792;9.260;2022-09-13T15:07:40;1.17;;;0.93;;
15356;SDS011;7778;48.792;9.260;2022-09-13T15:10:28;2.22;;;0.73;;
15356;SDS011;7778;48.792;9.260;2022-09-13T15:13:29;1.10;;;0.68;;
15356;SDS011;7778;48.792;9.260;2022-09-13T15:16:31;0.55;;;0.55;;
15356;SDS011;7778;48.792;9.260;2022-09-13T15:19:29;0.98;;;0.73;;
15356;SDS011;7778;48.792;9.260;2022-09-13T15:22:32;2.45;;;0.90;;
15356;SDS011;7778;48.792;9.260;2022-09-13T15:25:30;0.68;;;0.68;;
15356;SDS011;7778;48.792;9.260;2022-09-13T15:28:26;0.70;;;0.60;;
15356;SDS011;7778;48.792;9.260;2022-09-13T15:31:18;0.52;;;0.47;;
15356;SDS011;7778;48.792;9.260;2022-09-13T15:34:19;1.02;;;0.75;;
15356;SDS011;7778;48.792;9.260;2022-09-13T15:37:27;0.73;;;0.73;;
15356;SDS011;7778;48.792;9.260;2022-09-13T15:40:29;0.55;;;0.55;;
15356;SDS011;7778;48.792;9.260;2022-09-13T15:43:30;0.70;;;0.65;;
15356;SDS011;7778;48.792;9.260;2022-09-13T15:46:31;0.75;;;0.68;;
15356;SDS011;7778;48.792;9.260;2022-09-13T15:49:27;0.63;;;0.50;;
15356;SDS011;7778;48.792;9.260;2022-09-13T15:52:14;1.80;;;0.60;;
15356;SDS011;7778;48.792;9.260;2022-09-13T15:55:02;1.13;;;0.85;;
15356;SDS011;7778;48.792;9.260;2022-09-13T15:57:49;0.40;;;0.40;;
15356;SDS011;7778;48.792;9.260;2022-09-13T16:00:35;0.55;;;0.55;;
15356;SDS011;7778;48.792;9.260;2022-09-13T16:03:30;0.60;;;0.47;;
15356;SDS011;7778;48.792;9.260;2022-09-13T16:06:16;0.52;;;0.52;;
15356;SDS011;7778;48.792;9.260;2022-09-13T16:09:32;0.82;;;0.70;;
15356;SDS011;7778;48.792;9.260;2022-09-13T16:12:31;0.95;;;0.80;;
15356;SDS011;7778;48.792;9.260;2022-09-13T16:15:17;3.15;;;0.90;;
15356;SDS011;7778;48.792;9.260;2022-09-13T16:18:05;2.40;;;1.02;;
15356;SDS011;7778;48.792;9.260;2022-09-13T16:20:51;1.05;;;0.68;;
15356;SDS011;7778;48.792;9.260;2022-09-13T16:23:37;1.15;;;1.00;;
15356;SDS011;7778;48.792;9.260;2022-09-13T16:26:26;1.27;;;0.90;;
15356;SDS011;7778;48.792;9.260;2022-09-13T16:29:15;1.00;;;0.90;;
15356;SDS011;7778;48.792;9.260;2022-09-13T16:32:04;0.90;;;0.90;;
15356;SDS011;7778;48.792;9.260;2022-09-13T16:34:50;1.30;;;1.20;;
15356;SDS011;7778;48.792;9.260;2022-09-13T16:37:35;1.05;;;1.02;;
15356;SDS011;7778;48.792;9.260;2022-09-13T16:40:31;1.85;;;0.82;;
15356;SDS011;7778;48.792;9.260;2022-09-13T16:43:29;0.70;;;0.70;;
15356;SDS011;7778;48.792;9.260;2022-09-13T16:46:32;1.15;;;1.00;;
15356;SDS011;7778;48.792;9.260;2022-09-13T16:49:30;1.00;;;0.90;;
15356;SDS011;7778;48.792;9.260;2022-09-13T16:52:32;0.73;;;0.73;;
15356;SDS011;7778;48.792;9.260;2022-09-13T16:55:30;0.40;;;0.40;;
15356;SDS011;7778;48.792;9.260;2022-09-13T16:58:34;0.70;;;0.70;;
15356;SDS011;7778;48.792;9.260;2022-09-13T17:01:21;2.42;;;0.70;;
15356;SDS011;7778;48.792;9.260;2022-09-13T17:04:10;0.68;;;0.68;;
15356;SDS011;7778;48.792;9.260;2022-09-13T17:06:55;1.33;;;1.20;;
15356;SDS011;7778;48.792;9.260;2022-09-13T17:09:41;0.93;;;0.88;;
15356;SDS011;7778;48.792;9.260;2022-09-13T17:12:27;0.75;;;0.75;;
15356;SDS011;7778;48.792;9.260;2022-09-13T17:15:15;0.60;;;0.60;;
15356;SDS011;7778;48.792;9.260;2022-09-13T17:18:31;0.90;;;0.90;;
15356;SDS011;7778;48.792;9.260;2022-09-13T17:21:31;1.13;;;0.93;;
15356;SDS011;7778;48.792;9.260;2022-09-13T17:24:30;1.00;;;0.55;;
15356;SDS011;7778;48.792;9.260;2022-09-13T17:27:31;0.70;;;0.70;;
15356;SDS011;7778;48.792;9.260;2022-09-13T17:30:17;1.05;;;0.95;;
15356;SDS011;7778;48.792;9.260;2022-09-13T17:33:03;3.40;;;1.38;;
15356;SDS011;7778;48.792;9.260;2022-09-13T17:35:56;1.00;;;0.70;;
15356;SDS011;7778;48.792;9.260;2022-09-13T17:38:44;0.70;;;0.70;;
15356;SDS011;7778;48.792;9.260;2022-09-13T17:41:30;0.73;;;0.73;;
15356;SDS011;7778;48.792;9.260;2022-09-13T17:44:25;1.45;;;0.57;;
15356;SDS011;7778;48.792;9.260;2022-09-13T17:47:10;0.82;;;0.80;;
15356;SDS011;7778;48.792;9.260;2022-09-13T17:50:14;1.60;;;1.30;;
15356;SDS011;7778;48.792;9.260;2022-09-13T17:53:15;1.35;;;0.90;;
15356;SDS011;7778;48.792;9.260;2022-09-13T17:56:05;0.80;;;0.80;;
15356;SDS011;7778;48.792;9.260;2022-09-13T17:58:52;1.13;;;0.90;;
15356;SDS011;7778;48.792;9.260;2022-09-13T18:01:38;0.80;;;0.80;;
15356;SDS011;7778;48.792;9.260;2022-09-13T18:04:28;0.95;;;0.90;;
15356;SDS011;7778;48.792;9.260;2022-09-13T18:07:14;1.95;;;0.63;;
15356;SDS011;7778;48.792;9.260;2022-09-13T18:10:15;1.50;;;1.08;;
15356;SDS011;7778;48.792;9.260;2022-09-13T18:13:32;1.33;;;0.80;;
15356;SDS011;7778;48.792;9.260;2022-09-13T18:16:31;0.90;;;0.90;;
15356;SDS011;7778;48.792;9.260;2022-09-13T18:19:28;0.95;;;0.90;;
15356;SDS011;7778;48.792;9.260;2022-09-13T18:22:27;2.17;;;1.00;;